Time;durP1;ratioP1;P1;durP2;ratioP2;P2;SDS_P1;SDS_P2;PMS_P1;PMS_P2;Temp;Humidity;BMP_temperature;BMP_pressure;BME280_temperature;BME280_humidity;BME280_pressure;Samples;Min_cycle;Max_cycle;Signal;HPM_P1;HPM_P2
2021/11/04 00:01:50;;;;;;;73.35;34.78;;;;;;;;;;4994115;28;20678;-82
2021/11/04 00:04:16;;;;;;;78.07;38.40;;;;;;;;;;4995988;28;20178;-82
2021/11/04 00:06:42;;;;;;;76.43;39.53;;;;;;;;;;4996518;28;20411;-83
2021/11/04 00:09:08;;;;;;;74.32;38.40;;;;;;;;;;4996002;28;20418;-82
2021/11/04 00:11:37;;;;;;;76.85;41.28;;;;;;;;;;4995154;28;20245;-82
2021/11/04 00:14:03;;;;;;;86.63;42.03;;;;;;;;;;4995618;28;20203;-83
2021/11/04 00:16:29;;;;;;;83.10;42.65;;;;;;;;;;4995541;28;20175;-82
2021/11/04 00:18:55;;;;;;;96.37;44.70;;;;;;;;;;4995828;28;20226;-82
2021/11/04 00:21:21;;;;;;;78.93;42.00;;;;;;;;;;4995458;28;20457;-82
2021/11/04 00:23:47;;;;;;;87.72;42.22;;;;;;;;;;4995454;28;20410;-82
2021/11/04 00:26:13;;;;;;;91.60;41.28;;;;;;;;;;4996478;28;20176;-82
2021/11/04 00:28:39;;;;;;;89.10;42.05;;;;;;;;;;4995003;28;20188;-82
2021/11/04 00:31:05;;;;;;;88.07;42.00;;;;;;;;;;4995199;28;20655;-82
2021/11/04 00:33:31;;;;;;;87.68;42.20;;;;;;;;;;4995545;28;20472;-82
2021/11/04 00:35:57;;;;;;;83.32;45.28;;;;;;;;;;4995273;28;20670;-82
2021/11/04 00:38:23;;;;;;;87.23;45.00;;;;;;;;;;4994266;28;20179;-82
2021/11/04 00:40:49;;;;;;;90.10;43.90;;;;;;;;;;4995360;28;20962;-82
2021/11/04 00:43:15;;;;;;;78.38;40.35;;;;;;;;;;4994982;28;20430;-82
2021/11/04 00:45:41;;;;;;;90.00;42.25;;;;;;;;;;4995087;28;20184;-82
2021/11/04 00:48:07;;;;;;;80.72;42.25;;;;;;;;;;4994566;28;20179;-82
2021/11/04 00:50:33;;;;;;;86.53;43.33;;;;;;;;;;4994871;28;20571;-82
2021/11/04 00:52:59;;;;;;;76.63;38.92;;;;;;;;;;4994619;28;20438;-82
2021/11/04 00:55:25;;;;;;;75.17;38.07;;;;;;;;;;4994794;28;20187;-82
2021/11/04 00:57:51;;;;;;;68.37;38.87;;;;;;;;;;4993666;28;20416;-82
2021/11/04 01:00:17;;;;;;;80.68;40.25;;;;;;;;;;4994829;28;20836;-82
2021/11/04 01:02:43;;;;;;;75.55;40.63;;;;;;;;;;4994281;28;20265;-82
2021/11/04 01:05:09;;;;;;;77.70;39.75;;;;;;;;;;4993525;28;20178;-81
2021/11/04 01:07:35;;;;;;;69.97;38.58;;;;;;;;;;4994538;28;20180;-81
2021/11/04 01:10:01;;;;;;;77.63;37.35;;;;;;;;;;4994472;28;20541;-81
2021/11/04 01:12:27;;;;;;;84.55;40.53;;;;;;;;;;4994185;28;20195;-82
2021/11/04 01:14:53;;;;;;;77.57;39.57;;;;;;;;;;4993364;28;20191;-82
2021/11/04 01:17:19;;;;;;;76.60;39.43;;;;;;;;;;4994408;28;20423;-81
2021/11/04 01:19:45;;;;;;;77.28;40.05;;;;;;;;;;4994341;28;20418;-81
2021/11/04 01:22:11;;;;;;;81.03;39.15;;;;;;;;;;4992698;28;20218;-81
2021/11/04 01:24:40;;;;;;;74.85;39.60;;;;;;;;;;4994351;28;20628;-81
2021/11/04 01:27:06;;;;;;;74.03;40.05;;;;;;;;;;4992999;28;20190;-81
2021/11/04 01:29:32;;;;;;;82.55;41.53;;;;;;;;;;4994155;28;20211;-81
2021/11/04 01:31:58;;;;;;;71.73;36.93;;;;;;;;;;4992394;28;20253;-82
2021/11/04 01:34:24;;;;;;;75.07;40.37;;;;;;;;;;4994136;28;20808;-81
2021/11/04 01:36:50;;;;;;;74.57;37.97;;;;;;;;;;4994224;28;20414;-81
2021/11/04 01:39:16;;;;;;;82.20;41.75;;;;;;;;;;4994260;28;20827;-81
2021/11/04 01:41:42;;;;;;;80.30;40.13;;;;;;;;;;4993598;28;20239;-81
2021/11/04 01:44:08;;;;;;;69.78;35.38;;;;;;;;;;4992746;28;20229;-81
2021/11/04 01:46:35;;;;;;;73.45;37.90;;;;;;;;;;4994065;28;20175;-81
2021/11/04 01:49:01;;;;;;;77.78;38.67;;;;;;;;;;4994127;28;20706;-81
2021/11/04 01:51:27;;;;;;;74.10;38.22;;;;;;;;;;4993610;28;20640;-81
2021/11/04 01:53:53;;;;;;;83.28;39.10;;;;;;;;;;4992724;28;20180;-81
2021/11/04 01:56:19;;;;;;;78.28;32.92;;;;;;;;;;4993922;28;20179;-81
2021/11/04 01:58:45;;;;;;;72.95;36.65;;;;;;;;;;4993058;28;20542;-81
2021/11/04 02:01:11;;;;;;;75.70;39.10;;;;;;;;;;4992292;28;20213;-82
2021/11/04 02:03:58;;;;;;;87.55;40.28;;;;;;;;;;4992369;28;20443;-81
2021/11/04 02:06:24;;;;;;;83.10;39.00;;;;;;;;;;4993673;28;20184;-81
2021/11/04 02:09:11;;;;;;;79.87;38.47;;;;;;;;;;4993717;28;20172;-82
2021/11/04 02:11:57;;;;;;;79.20;38.15;;;;;;;;;;4993391;28;20410;-81
2021/11/04 02:14:37;;;;;;;86.50;38.40;;;;;;;;;;4993648;28;20163;-81
2021/11/04 02:17:05;;;;;;;78.35;37.63;;;;;;;;;;4993817;28;20663;-81
2021/11/04 02:19:42;;;;;;;79.80;38.58;;;;;;;;;;4993629;28;20172;-82
2021/11/04 02:22:32;;;;;;;81.40;38.30;;;;;;;;;;4993185;28;20207;-82
2021/11/04 02:25:18;;;;;;;84.60;37.63;;;;;;;;;;4965743;28;20272;-81
2021/11/04 02:27:51;;;;;;;90.30;37.40;;;;;;;;;;4992275;28;20186;-81
2021/11/04 02:30:18;;;;;;;86.80;40.78;;;;;;;;;;4993583;28;20186;-81
2021/11/04 02:32:45;;;;;;;90.38;38.25;;;;;;;;;;4993020;28;20202;-82
2021/11/04 02:35:11;;;;;;;95.35;37.42;;;;;;;;;;4992427;28;20634;-81
2021/11/04 02:37:37;;;;;;;97.43;39.13;;;;;;;;;;4993491;28;20241;-81
2021/11/04 02:40:04;;;;;;;94.10;40.67;;;;;;;;;;4992085;28;20186;-81
2021/11/04 02:42:30;;;;;;;103.80;40.22;;;;;;;;;;4993125;28;20621;-81
2021/11/04 02:44:56;;;;;;;89.07;39.83;;;;;;;;;;4993492;28;20230;-81
2021/11/04 02:47:23;;;;;;;104.07;37.53;;;;;;;;;;4993700;28;20187;-81
2021/11/04 02:49:51;;;;;;;101.82;38.30;;;;;;;;;;4993401;28;20233;-81
2021/11/04 02:52:17;;;;;;;97.10;39.67;;;;;;;;;;4992923;28;20766;-81
2021/11/04 02:54:50;;;;;;;87.20;39.13;;;;;;;;;;4993294;28;20187;-81
2021/11/04 02:57:16;;;;;;;97.10;39.10;;;;;;;;;;4976024;28;20191;-81
2021/11/04 02:59:42;;;;;;;87.88;39.75;;;;;;;;;;4992149;28;20198;-81
2021/11/04 03:02:08;;;;;;;97.60;42.23;;;;;;;;;;4992808;28;20294;-81
2021/11/04 03:04:34;;;;;;;95.43;41.40;;;;;;;;;;4993022;28;20415;-81
2021/11/04 03:07:01;;;;;;;100.20;44.20;;;;;;;;;;4993034;28;20894;-81
2021/11/04 03:09:27;;;;;;;102.50;40.50;;;;;;;;;;4993665;28;20823;-81
2021/11/04 03:11:53;;;;;;;90.88;40.22;;;;;;;;;;4996332;28;20203;-81
2021/11/04 03:14:19;;;;;;;96.68;40.10;;;;;;;;;;4995368;28;20682;-81
2021/11/04 03:16:51;;;;;;;92.40;42.38;;;;;;;;;;4996492;28;20179;-81
2021/11/04 03:19:18;;;;;;;102.53;42.72;;;;;;;;;;4995137;28;20194;-81
2021/11/04 03:21:47;;;;;;;108.78;42.42;;;;;;;;;;4995100;28;20639;-81
2021/11/04 03:24:13;;;;;;;102.25;43.20;;;;;;;;;;4995680;28;20175;-81
2021/11/04 03:26:41;;;;;;;94.55;41.72;;;;;;;;;;4996422;28;20171;-81
2021/11/04 03:29:08;;;;;;;103.95;46.15;;;;;;;;;;4996235;28;20643;-81
2021/11/04 03:31:36;;;;;;;118.93;46.60;;;;;;;;;;4995828;28;20191;-81
2021/11/04 03:34:03;;;;;;;116.55;47.60;;;;;;;;;;4996387;28;20182;-81
2021/11/04 03:36:29;;;;;;;130.38;48.17;;;;;;;;;;4996411;28;20539;-81
2021/11/04 03:38:56;;;;;;;129.48;52.80;;;;;;;;;;4996097;28;20197;-81
2021/11/04 03:41:22;;;;;;;119.65;47.63;;;;;;;;;;4995652;28;20296;-81
2021/11/04 03:43:49;;;;;;;127.00;53.75;;;;;;;;;;4996167;28;20234;-81
2021/11/04 03:46:15;;;;;;;146.73;54.85;;;;;;;;;;4996053;28;20180;-81
2021/11/04 03:48:42;;;;;;;143.73;53.90;;;;;;;;;;4995916;28;20190;-81
2021/11/04 03:51:09;;;;;;;139.48;53.53;;;;;;;;;;4995582;28;20193;-81
2021/11/04 03:53:38;;;;;;;160.00;56.92;;;;;;;;;;4995730;28;20214;-81
2021/11/04 03:56:04;;;;;;;154.43;57.97;;;;;;;;;;4995912;28;20172;-81
2021/11/04 03:58:31;;;;;;;156.20;59.15;;;;;;;;;;4996005;28;20176;-81
2021/11/04 04:00:57;;;;;;;175.57;57.92;;;;;;;;;;4994265;28;20206;-81
2021/11/04 04:03:23;;;;;;;162.27;56.83;;;;;;;;;;4995559;28;20598;-81
2021/11/04 04:06:02;;;;;;;140.68;47.58;;;;;;;;;;4995717;28;20549;-80
2021/11/04 04:08:30;;;;;;;164.73;52.63;;;;;;;;;;4994383;28;20183;-81
2021/11/04 04:10:56;;;;;;;163.27;54.55;;;;;;;;;;4995270;28;20182;-81
2021/11/04 04:13:22;;;;;;;157.07;53.53;;;;;;;;;;4995378;28;20210;-80
2021/11/04 04:15:48;;;;;;;165.75;54.92;;;;;;;;;;4994071;28;20686;-81
2021/11/04 04:18:14;;;;;;;149.25;53.03;;;;;;;;;;4995481;28;20260;-81
2021/11/04 04:20:40;;;;;;;158.70;55.70;;;;;;;;;;4994179;28;20324;-82
2021/11/04 04:23:06;;;;;;;176.80;57.22;;;;;;;;;;4994495;28;20201;-81
2021/11/04 04:25:32;;;;;;;133.50;47.85;;;;;;;;;;4993984;28;20649;-80
2021/11/04 04:27:59;;;;;;;146.18;50.67;;;;;;;;;;4995322;28;20172;-81
2021/11/04 04:30:25;;;;;;;143.00;49.30;;;;;;;;;;4995193;28;20229;-81
2021/11/04 04:32:51;;;;;;;150.02;56.50;;;;;;;;;;4994990;28;20269;-81
2021/11/04 04:35:17;;;;;;;121.82;47.80;;;;;;;;;;4995133;28;20186;-81
2021/11/04 04:37:43;;;;;;;125.97;50.47;;;;;;;;;;4993793;28;20223;-81
2021/11/04 04:40:10;;;;;;;126.00;49.53;;;;;;;;;;4993643;28;20198;-81
2021/11/04 04:42:37;;;;;;;121.43;48.70;;;;;;;;;;4994410;28;20210;-81
2021/11/04 04:45:04;;;;;;;106.90;44.95;;;;;;;;;;4993709;28;20179;-80
2021/11/04 04:47:30;;;;;;;109.50;46.35;;;;;;;;;;4994871;28;20176;-81
2021/11/04 04:49:58;;;;;;;108.32;44.40;;;;;;;;;;4995220;28;20182;-81
2021/11/04 04:52:25;;;;;;;100.68;41.35;;;;;;;;;;4994404;28;20219;-81
2021/11/04 04:54:51;;;;;;;117.00;43.58;;;;;;;;;;4994945;28;20186;-81
2021/11/04 04:57:22;;;;;;;105.43;41.47;;;;;;;;;;4994786;28;20213;-81
2021/11/04 04:59:48;;;;;;;95.90;43.88;;;;;;;;;;4994709;28;20184;-80
2021/11/04 05:02:14;;;;;;;102.07;41.70;;;;;;;;;;4994329;28;20299;-81
2021/11/04 05:04:40;;;;;;;101.93;41.08;;;;;;;;;;4994645;28;20227;-80
2021/11/04 05:07:06;;;;;;;86.70;40.10;;;;;;;;;;4994525;28;20179;-80
2021/11/04 05:09:32;;;;;;;89.43;39.90;;;;;;;;;;4994701;28;20415;-80
2021/11/04 05:11:59;;;;;;;73.77;36.47;;;;;;;;;;4993982;28;21028;-80
2021/11/04 05:14:25;;;;;;;79.97;37.30;;;;;;;;;;4994426;28;20409;-80
2021/11/04 05:16:51;;;;;;;95.10;39.63;;;;;;;;;;4994282;28;20467;-81
2021/11/04 05:19:17;;;;;;;85.20;38.67;;;;;;;;;;4994211;28;20450;-80
2021/11/04 05:21:43;;;;;;;90.70;38.40;;;;;;;;;;4992518;28;20222;-81
2021/11/04 05:24:09;;;;;;;96.73;40.00;;;;;;;;;;4994110;28;20421;-81
2021/11/04 05:26:36;;;;;;;95.47;40.45;;;;;;;;;;4994390;28;20450;-80
2021/11/04 05:29:02;;;;;;;82.53;38.05;;;;;;;;;;4994230;28;20611;-81
2021/11/04 05:31:28;;;;;;;88.05;40.08;;;;;;;;;;4993714;28;20226;-80
2021/11/04 05:33:54;;;;;;;88.10;39.63;;;;;;;;;;4992653;28;20211;-81
2021/11/04 05:36:21;;;;;;;92.03;41.17;;;;;;;;;;4992809;28;20418;-81
2021/11/04 05:38:47;;;;;;;106.68;43.13;;;;;;;;;;4992714;28;20421;-81
2021/11/04 05:41:12;;;;;;;101.90;43.22;;;;;;;;;;4992372;28;20309;-81
2021/11/04 05:43:38;;;;;;;95.23;43.20;;;;;;;;;;4993937;28;20673;-81
2021/11/04 05:46:04;;;;;;;81.95;36.70;;;;;;;;;;4994030;28;20399;-81
2021/11/04 05:48:31;;;;;;;102.87;40.13;;;;;;;;;;4992772;28;20633;-80
2021/11/04 05:50:57;;;;;;;96.88;41.50;;;;;;;;;;4993533;28;20951;-81
2021/11/04 05:53:24;;;;;;;91.38;42.80;;;;;;;;;;4993670;28;20203;-80
2021/11/04 05:55:51;;;;;;;100.65;40.88;;;;;;;;;;4993852;28;20172;-81
2021/11/04 05:58:17;;;;;;;89.03;42.05;;;;;;;;;;4993624;28;20182;-80
2021/11/04 06:00:43;;;;;;;96.70;42.67;;;;;;;;;;4993743;28;20519;-81
2021/11/04 06:03:11;;;;;;;96.50;40.33;;;;;;;;;;4993466;28;20221;-81
2021/11/04 06:05:37;;;;;;;96.07;40.53;;;;;;;;;;4993725;28;20202;-81
2021/11/04 06:08:03;;;;;;;100.63;40.50;;;;;;;;;;4992481;28;20212;-81
2021/11/04 06:10:29;;;;;;;106.93;41.38;;;;;;;;;;4993591;28;20421;-81
2021/11/04 06:12:59;;;;;;;91.27;37.67;;;;;;;;;;4993195;28;20571;-80
2021/11/04 06:15:25;;;;;;;102.68;37.85;;;;;;;;;;4993617;28;20407;-80
2021/11/04 06:17:51;;;;;;;102.57;43.08;;;;;;;;;;4993649;28;20182;-81
2021/11/04 06:20:17;;;;;;;117.80;43.03;;;;;;;;;;4992436;28;20179;-81
2021/11/04 06:22:43;;;;;;;100.85;39.35;;;;;;;;;;4993059;28;20215;-81
2021/11/04 06:25:10;;;;;;;83.35;30.05;;;;;;;;;;4993626;28;20182;-81
2021/11/04 06:27:36;;;;;;;101.00;41.85;;;;;;;;;;4993667;28;20558;-81
2021/11/04 06:30:04;;;;;;;103.10;37.90;;;;;;;;;;4993648;28;20687;-81
2021/11/04 06:32:30;;;;;;;110.28;41.00;;;;;;;;;;4993030;28;20314;-81
2021/11/04 06:34:56;;;;;;;109.65;38.70;;;;;;;;;;4993771;28;20182;-81
2021/11/04 06:37:22;;;;;;;103.88;37.67;;;;;;;;;;4993469;28;20180;-82
2021/11/04 06:39:48;;;;;;;102.72;40.17;;;;;;;;;;4993627;28;20175;-81
2021/11/04 06:42:14;;;;;;;113.35;41.25;;;;;;;;;;4993162;28;20719;-81
2021/11/04 06:44:41;;;;;;;124.00;41.92;;;;;;;;;;4994252;28;20176;-81
2021/11/04 06:47:10;;;;;;;120.95;40.40;;;;;;;;;;4997332;28;20172;-81
2021/11/04 06:49:36;;;;;;;89.78;33.72;;;;;;;;;;4997094;28;20695;-81
2021/11/04 06:52:03;;;;;;;109.75;37.63;;;;;;;;;;4995373;28;20204;-81
2021/11/04 06:54:31;;;;;;;106.03;37.20;;;;;;;;;;4996972;28;20175;-81
2021/11/04 06:56:57;;;;;;;105.13;37.00;;;;;;;;;;4997019;28;20183;-81
2021/11/04 06:59:24;;;;;;;87.43;29.02;;;;;;;;;;4995712;28;20215;-80
2021/11/04 07:01:51;;;;;;;106.60;36.10;;;;;;;;;;4996372;28;20250;-81
2021/11/04 07:04:22;;;;;;;100.97;33.17;;;;;;;;;;4995389;28;20203;-81
2021/11/04 07:06:49;;;;;;;88.00;26.48;;;;;;;;;;4996802;28;20195;-82
2021/11/04 07:09:15;;;;;;;108.07;32.80;;;;;;;;;;4996760;28;20194;-81
2021/11/04 07:11:41;;;;;;;102.20;35.25;;;;;;;;;;4996331;28;20561;-81
2021/11/04 07:14:07;;;;;;;108.05;36.60;;;;;;;;;;4996618;28;20242;-81
2021/11/04 07:16:33;;;;;;;91.95;36.25;;;;;;;;;;4996500;28;20180;-81
2021/11/04 07:18:59;;;;;;;96.80;33.70;;;;;;;;;;4996366;28;20231;-82
2021/11/04 07:21:37;;;;;;;114.65;34.25;;;;;;;;;;4996177;28;20278;-81
2021/11/04 07:24:07;;;;;;;103.85;36.35;;;;;;;;;;4996785;28;20325;-81
2021/11/04 07:26:37;;;;;;;113.38;34.63;;;;;;;;;;4996539;28;20175;-81
2021/11/04 07:29:04;;;;;;;115.60;36.20;;;;;;;;;;4996215;28;20273;-82
2021/11/04 07:31:33;;;;;;;117.80;35.10;;;;;;;;;;4995943;28;20595;-81
2021/11/04 07:34:01;;;;;;;124.90;33.63;;;;;;;;;;4996480;28;20318;-81
2021/11/04 07:36:28;;;;;;;124.20;36.67;;;;;;;;;;4996374;28;20550;-82
2021/11/04 07:38:54;;;;;;;122.50;38.55;;;;;;;;;;4996056;28;20185;-81
2021/11/04 07:41:20;;;;;;;93.20;29.00;;;;;;;;;;4995491;28;20227;-81
2021/11/04 07:43:47;;;;;;;167.00;56.23;;;;;;;;;;4996241;28;20668;-81
2021/11/04 07:46:13;;;;;;;123.55;36.75;;;;;;;;;;4996260;28;20408;-81
2021/11/04 07:48:42;;;;;;;115.28;35.65;;;;;;;;;;4996286;28;20175;-81
2021/11/04 07:51:08;;;;;;;112.20;35.80;;;;;;;;;;4995789;28;20176;-81
2021/11/04 07:53:34;;;;;;;105.07;29.73;;;;;;;;;;4996019;28;20202;-81
2021/11/04 07:56:00;;;;;;;127.47;37.00;;;;;;;;;;4994994;28;20415;-82
2021/11/04 07:58:26;;;;;;;126.38;35.65;;;;;;;;;;4994400;28;20435;-81
2021/11/04 08:00:52;;;;;;;101.50;32.40;;;;;;;;;;4995750;28;20198;-81
2021/11/04 08:03:18;;;;;;;127.43;36.70;;;;;;;;;;4995427;28;20434;-81
2021/11/04 08:05:44;;;;;;;127.53;34.58;;;;;;;;;;4995797;28;20235;-81
2021/11/04 08:08:10;;;;;;;113.55;34.35;;;;;;;;;;4995763;28;20164;-82
2021/11/04 08:10:36;;;;;;;118.30;35.28;;;;;;;;;;4994468;28;20714;-81
2021/11/04 08:13:12;;;;;;;137.63;37.17;;;;;;;;;;4995188;28;20215;-81
2021/11/04 08:15:39;;;;;;;122.70;35.40;;;;;;;;;;4994385;28;20193;-81
2021/11/04 08:18:06;;;;;;;121.47;35.60;;;;;;;;;;4994344;28;20644;-82
2021/11/04 08:20:32;;;;;;;116.47;35.25;;;;;;;;;;4994176;28;20185;-81
2021/11/04 08:22:59;;;;;;;112.03;34.85;;;;;;;;;;4995022;28;20579;-81
2021/11/04 08:25:25;;;;;;;111.13;34.35;;;;;;;;;;4995214;28;20182;-82
2021/11/04 08:27:51;;;;;;;107.43;34.15;;;;;;;;;;4994341;28;20171;-81
2021/11/04 08:30:17;;;;;;;100.03;32.40;;;;;;;;;;4995298;28;20280;-81
2021/11/04 08:32:44;;;;;;;111.55;34.63;;;;;;;;;;4993764;28;20249;-81
2021/11/04 08:35:11;;;;;;;105.65;35.83;;;;;;;;;;4995278;28;20172;-81
2021/11/04 08:37:37;;;;;;;111.13;36.00;;;;;;;;;;4994047;28;20198;-81
2021/11/04 08:40:05;;;;;;;107.95;33.63;;;;;;;;;;4995231;28;20649;-82
2021/11/04 08:42:31;;;;;;;110.13;35.15;;;;;;;;;;4994761;28;20209;-82
2021/11/04 08:44:59;;;;;;;123.13;36.35;;;;;;;;;;4995089;28;20178;-81
2021/11/04 08:47:25;;;;;;;104.43;34.45;;;;;;;;;;4993777;28;20178;-82
2021/11/04 08:49:51;;;;;;;115.22;35.90;;;;;;;;;;4994880;28;20191;-81
2021/11/04 08:52:17;;;;;;;107.30;36.45;;;;;;;;;;4994459;28;20282;-82
2021/11/04 08:54:43;;;;;;;112.20;34.77;;;;;;;;;;4994753;28;20734;-81
2021/11/04 08:57:12;;;;;;;105.80;36.33;;;;;;;;;;4994897;28;20509;-82
2021/11/04 08:59:41;;;;;;;102.22;34.20;;;;;;;;;;4994708;28;20594;-81
2021/11/04 09:02:07;;;;;;;98.05;34.53;;;;;;;;;;4992901;28;20218;-81
2021/11/04 09:04:33;;;;;;;101.10;35.08;;;;;;;;;;4993474;28;20197;-81
2021/11/04 09:06:59;;;;;;;97.47;35.60;;;;;;;;;;4994323;28;20179;-81
2021/11/04 09:09:26;;;;;;;89.17;34.77;;;;;;;;;;4994394;28;20439;-81
2021/11/04 09:11:52;;;;;;;93.97;35.08;;;;;;;;;;4992679;28;20441;-81
2021/11/04 09:14:17;;;;;;;96.37;35.30;;;;;;;;;;4994521;28;20182;-81
2021/11/04 09:16:43;;;;;;;88.78;35.45;;;;;;;;;;4993111;28;20423;-80
2021/11/04 09:19:10;;;;;;;81.07;33.87;;;;;;;;;;4994417;28;20176;-80
2021/11/04 09:21:36;;;;;;;77.00;33.25;;;;;;;;;;4993735;28;20941;-81
2021/11/04 09:24:02;;;;;;;75.55;35.67;;;;;;;;;;4994151;28;20178;-82
2021/11/04 09:26:29;;;;;;;74.57;36.10;;;;;;;;;;4993015;28;20179;-81
2021/11/04 09:28:55;;;;;;;75.45;35.72;;;;;;;;;;4994412;28;20191;-81
2021/11/04 09:31:21;;;;;;;75.30;35.42;;;;;;;;;;4993814;28;20203;-81
2021/11/04 09:33:47;;;;;;;78.13;35.73;;;;;;;;;;4993068;28;20212;-80
2021/11/04 09:36:14;;;;;;;68.78;32.30;;;;;;;;;;4994070;28;20502;-80
2021/11/04 09:38:40;;;;;;;67.35;32.75;;;;;;;;;;4994109;28;20175;-80
2021/11/04 09:41:06;;;;;;;66.50;32.53;;;;;;;;;;4993644;28;20207;-80
2021/11/04 09:43:33;;;;;;;76.15;35.00;;;;;;;;;;4993908;28;20203;-81
2021/11/04 09:46:02;;;;;;;66.68;32.47;;;;;;;;;;4993963;28;20234;-80
2021/11/04 09:48:28;;;;;;;65.55;34.08;;;;;;;;;;4994341;28;20185;-80
2021/11/04 09:50:55;;;;;;;62.20;30.45;;;;;;;;;;4993752;28;20254;-80
2021/11/04 09:53:21;;;;;;;75.65;32.38;;;;;;;;;;4993921;28;20551;-80
2021/11/04 09:55:47;;;;;;;68.13;33.25;;;;;;;;;;4993980;28;20171;-80
2021/11/04 09:58:13;;;;;;;62.10;32.00;;;;;;;;;;4992716;28;20261;-80
2021/11/04 10:00:41;;;;;;;65.32;31.35;;;;;;;;;;4993993;28;20306;-81
2021/11/04 10:03:09;;;;;;;54.08;29.55;;;;;;;;;;4993500;28;20684;-80
2021/11/04 10:05:41;;;;;;;63.47;31.95;;;;;;;;;;4993724;28;20262;-80
2021/11/04 10:08:09;;;;;;;71.82;30.83;;;;;;;;;;4993670;28;20530;-80
2021/11/04 10:10:35;;;;;;;60.70;31.90;;;;;;;;;;4993798;28;20225;-80
2021/11/04 10:13:03;;;;;;;50.17;29.27;;;;;;;;;;4993317;28;20211;-80
2021/11/04 10:15:31;;;;;;;52.95;29.70;;;;;;;;;;4992350;28;20663;-80
2021/11/04 10:18:14;;;;;;;58.78;30.48;;;;;;;;;;4993388;28;20519;-81
2021/11/04 10:20:40;;;;;;;60.65;31.23;;;;;;;;;;4996188;28;20206;-80
2021/11/04 10:23:11;;;;;;;57.33;31.00;;;;;;;;;;4997104;28;20230;-80
2021/11/04 10:25:37;;;;;;;58.17;33.05;;;;;;;;;;4997599;28;20268;-80
2021/11/04 10:28:42;;;;;;;57.92;33.45;;;;;;;;;;4997404;28;20199;-80
2021/11/04 10:31:15;;;;;;;59.42;32.38;;;;;;;;;;4956398;28;20673;-80
2021/11/04 10:33:43;;;;;;;59.50;31.52;;;;;;;;;;4956474;29;20207;-80
2021/11/04 10:36:10;;;;;;;62.92;32.40;;;;;;;;;;4978528;28;20236;-80
2021/11/04 10:38:43;;;;;;;48.08;27.85;;;;;;;;;;4997316;28;20180;-79
2021/11/04 10:41:11;;;;;;;48.05;30.27;;;;;;;;;;4996958;28;20200;-80
2021/11/04 10:43:38;;;;;;;58.20;32.15;;;;;;;;;;4997315;28;20195;-82
2021/11/04 10:46:05;;;;;;;61.22;32.80;;;;;;;;;;4997295;28;20179;-82
2021/11/04 10:48:32;;;;;;;52.10;31.25;;;;;;;;;;4995871;28;20194;-82
2021/11/04 10:50:58;;;;;;;62.60;32.85;;;;;;;;;;4997023;28;20255;-82
2021/11/04 10:53:25;;;;;;;68.37;32.67;;;;;;;;;;4979658;28;20369;-81
2021/11/04 10:55:54;;;;;;;59.35;31.13;;;;;;;;;;4995746;28;20954;-81
2021/11/04 10:58:31;;;;;;;58.88;29.60;;;;;;;;;;4996951;28;20180;-81
2021/11/04 11:00:57;;;;;;;50.28;28.52;;;;;;;;;;4996457;28;20175;-81
2021/11/04 11:03:24;;;;;;;60.72;30.58;;;;;;;;;;4995430;28;20236;-82
2021/11/04 11:05:55;;;;;;;60.05;28.63;;;;;;;;;;4995472;28;20168;-81
2021/11/04 11:08:21;;;;;;;55.15;29.27;;;;;;;;;;4996923;28;20157;-81
2021/11/04 11:10:47;;;;;;;45.17;22.25;;;;;;;;;;4995311;28;20171;-81
2021/11/04 11:13:13;;;;;;;63.53;32.63;;;;;;;;;;4996254;28;20195;-82
2021/11/04 11:15:41;;;;;;;64.18;32.58;;;;;;;;;;4996828;28;20179;-83
2021/11/04 11:18:08;;;;;;;54.95;30.00;;;;;;;;;;4996659;28;20539;-82
2021/11/04 11:20:36;;;;;;;64.07;34.58;;;;;;;;;;4996810;28;20663;-82
2021/11/04 11:23:02;;;;;;;65.80;33.17;;;;;;;;;;4996284;28;20221;-81
2021/11/04 11:25:33;;;;;;;63.28;32.42;;;;;;;;;;4996554;28;20180;-82
2021/11/04 11:28:00;;;;;;;62.17;34.55;;;;;;;;;;4996652;28;20553;-82
2021/11/04 11:30:26;;;;;;;60.92;33.85;;;;;;;;;;4996034;28;20183;-82
2021/11/04 11:33:11;;;;;;;57.20;34.10;;;;;;;;;;4994873;28;20230;-82
2021/11/04 11:35:39;;;;;;;55.35;31.30;;;;;;;;;;4996632;28;20414;-82
2021/11/04 11:38:08;;;;;;;59.17;35.15;;;;;;;;;;4995255;28;20653;-82
2021/11/04 11:40:38;;;;;;;54.08;32.30;;;;;;;;;;4994882;28;20219;-83
2021/11/04 11:43:12;;;;;;;59.10;33.38;;;;;;;;;;4995837;28;20236;-82
2021/11/04 11:45:40;;;;;;;61.47;34.92;;;;;;;;;;4996360;28;20174;-82
2021/11/04 11:48:25;;;;;;;54.20;33.90;;;;;;;;;;4996161;28;20203;-82
2021/11/04 11:50:51;;;;;;;48.05;32.25;;;;;;;;;;4996218;28;20190;-82
2021/11/04 11:53:24;;;;;;;49.40;31.08;;;;;;;;;;4995825;28;20214;-82
2021/11/04 11:55:51;;;;;;;51.35;31.40;;;;;;;;;;4996360;28;20183;-82
2021/11/04 11:58:21;;;;;;;44.90;30.63;;;;;;;;;;4996002;28;20544;-82
2021/11/04 12:00:56;;;;;;;42.58;28.67;;;;;;;;;;4994853;28;20230;-82
2021/11/04 12:03:32;;;;;;;40.95;29.58;;;;;;;;;;4995964;28;20205;-83
2021/11/04 12:06:01;;;;;;;48.28;28.90;;;;;;;;;;4996068;28;20171;-82
2021/11/04 12:08:27;;;;;;;45.42;29.55;;;;;;;;;;4995939;28;20180;-82
2021/11/04 12:10:53;;;;;;;40.20;28.17;;;;;;;;;;4995803;28;20176;-82
2021/11/04 12:13:36;;;;;;;37.53;27.00;;;;;;;;;;4995534;28;20426;-82
2021/11/04 12:16:08;;;;;;;40.88;26.30;;;;;;;;;;4996151;28;20179;-82
2021/11/04 12:18:36;;;;;;;31.58;22.60;;;;;;;;;;4995712;28;20254;-81
2021/11/04 12:21:02;;;;;;;34.55;23.98;;;;;;;;;;4995336;28;20171;-82
2021/11/04 12:23:35;;;;;;;34.50;24.43;;;;;;;;;;4995464;28;20758;-81
2021/11/04 12:26:04;;;;;;;32.22;23.02;;;;;;;;;;4995363;28;20409;-82
2021/11/04 12:28:46;;;;;;;35.75;25.23;;;;;;;;;;4994215;28;20574;-81
2021/11/04 12:31:14;;;;;;;36.25;26.55;;;;;;;;;;4993859;28;20285;-82
2021/11/04 12:33:40;;;;;;;29.25;21.40;;;;;;;;;;4995069;28;20200;-82
2021/11/04 12:36:06;;;;;;;31.85;22.42;;;;;;;;;;4995230;28;20263;-82
2021/11/04 12:38:39;;;;;;;31.85;22.23;;;;;;;;;;4995190;28;20704;-81
2021/11/04 12:41:15;;;;;;;28.33;19.70;;;;;;;;;;4994877;28;20182;-81
2021/11/04 12:43:42;;;;;;;28.95;18.58;;;;;;;;;;4994761;28;20559;-81
2021/11/04 12:46:13;;;;;;;24.38;17.60;;;;;;;;;;4995057;28;20176;-82
2021/11/04 12:48:48;;;;;;;21.20;14.82;;;;;;;;;;4995496;28;20512;-81
2021/11/04 12:51:15;;;;;;;22.83;14.98;;;;;;;;;;4995318;28;20540;-81
2021/11/04 12:53:51;;;;;;;20.92;16.13;;;;;;;;;;4995081;28;20270;-81
2021/11/04 12:56:17;;;;;;;16.38;11.57;;;;;;;;;;4995358;28;20175;-81
2021/11/04 12:58:44;;;;;;;24.30;15.98;;;;;;;;;;4977529;28;20245;-81
2021/11/04 13:01:09;;;;;;;23.73;15.10;;;;;;;;;;4994438;28;20254;-81
2021/11/04 13:03:35;;;;;;;23.20;17.70;;;;;;;;;;4995020;28;20207;-81
2021/11/04 13:06:06;;;;;;;21.17;15.30;;;;;;;;;;4994637;28;20469;-81
2021/11/04 13:08:33;;;;;;;25.38;17.80;;;;;;;;;;4994887;28;20171;-81
2021/11/04 13:11:01;;;;;;;23.27;18.90;;;;;;;;;;4977180;28;20179;-81
2021/11/04 13:13:28;;;;;;;28.73;20.90;;;;;;;;;;4994372;28;20202;-81
2021/11/04 13:15:54;;;;;;;28.10;20.05;;;;;;;;;;4994423;28;20175;-81
2021/11/04 13:18:23;;;;;;;30.55;20.67;;;;;;;;;;4994389;28;20179;-81
2021/11/04 13:20:49;;;;;;;35.75;21.80;;;;;;;;;;4993051;28;20190;-80
2021/11/04 13:23:20;;;;;;;27.65;19.35;;;;;;;;;;4994087;28;20199;-80
2021/11/04 13:25:51;;;;;;;24.83;18.00;;;;;;;;;;4994177;28;20171;-80
2021/11/04 13:28:21;;;;;;;19.30;14.27;;;;;;;;;;4994403;28;20182;-80
2021/11/04 13:30:47;;;;;;;23.05;16.33;;;;;;;;;;4994041;28;20213;-80
2021/11/04 13:33:14;;;;;;;23.77;15.87;;;;;;;;;;4993870;28;20274;-80
2021/11/04 13:35:42;;;;;;;24.98;14.00;;;;;;;;;;4993979;28;20442;-80
2021/11/04 13:38:10;;;;;;;16.38;13.98;;;;;;;;;;4994108;28;20269;-80
2021/11/04 13:40:55;;;;;;;16.60;11.05;;;;;;;;;;4994132;28;20567;-80
2021/11/04 13:43:34;;;;;;;13.50;9.23;;;;;;;;;;4993987;28;20203;-80
2021/11/04 13:46:06;;;;;;;8.98;6.97;;;;;;;;;;4992948;28;20218;-81
2021/11/04 13:48:32;;;;;;;7.70;5.20;;;;;;;;;;4993956;28;20175;-81
2021/11/04 13:50:58;;;;;;;7.95;5.20;;;;;;;;;;4992485;28;20185;-80
2021/11/04 13:53:24;;;;;;;6.43;4.65;;;;;;;;;;4992523;28;20210;-80
2021/11/04 13:55:54;;;;;;;7.75;5.32;;;;;;;;;;4994123;28;20615;-80
2021/11/04 13:58:21;;;;;;;5.13;4.50;;;;;;;;;;4994022;28;20583;-80
2021/11/04 14:00:46;;;;;;;5.80;4.57;;;;;;;;;;4992733;28;20183;-80
2021/11/04 14:03:14;;;;;;;5.83;4.67;;;;;;;;;;4993330;28;20219;-80
2021/11/04 14:05:58;;;;;;;8.55;5.93;;;;;;;;;;4993779;28;20411;-80
2021/11/04 14:08:51;;;;;;;6.13;4.95;;;;;;;;;;4992580;28;20655;-80
2021/11/04 14:11:25;;;;;;;8.43;5.70;;;;;;;;;;4991466;28;20601;-81
2021/11/04 14:13:53;;;;;;;10.02;6.20;;;;;;;;;;4993555;28;20665;-81
2021/11/04 14:16:27;;;;;;;6.45;5.05;;;;;;;;;;4993758;28;20543;-80
2021/11/04 14:19:03;;;;;;;6.75;5.50;;;;;;;;;;4993684;28;20543;-81